AAL566 KDFW-KORD
Flight info
| Callsign | AAL566 |
|---|---|
| Flight time | 1h 50m |
| Altitude | 35000 |
| Route | AKUNA9 MLC SGF WELTS TRTLL6 |
| Aircraft | A321/M-SDE3FGHIRWY/LB1 |
Departure
| Time | 2026-05-04 10:02 |
|---|---|
| Airport | Dallas Fort Worth International Airport (KDFW) |
Arrival
| Time | 2026-05-04 11:52 |
|---|---|
| Airport | Chicago O'Hare International Airport (KORD) |
| Time | Latitude | Longitude | Altitude | Speed | Heading |
|---|---|---|---|---|---|
| 2026-05-04 09:31 | 32.90004 | -97.04529 | 599 ft | 0 kts | 178° |
| 2026-05-04 09:51 | 32.90047 | -97.04532 | 599 ft | 3 kts | 178° |
| 2026-05-04 09:51 | 32.90068 | -97.04531 | 599 ft | 4 kts | 210° |
| 2026-05-04 09:51 | 32.90081 | -97.04510 | 598 ft | 4 kts | 267° |
| 2026-05-04 09:51 | 32.90081 | -97.04515 | 598 ft | 4 kts | 270° |
| 2026-05-04 09:52 | 32.90081 | -97.04525 | 598 ft | 0 kts | 270° |
| 2026-05-04 09:53 | 32.90081 | -97.04528 | 598 ft | 1 kts | 270° |
| 2026-05-04 09:53 | 32.90081 | -97.04543 | 598 ft | 3 kts | 270° |
| 2026-05-04 09:54 | 32.90081 | -97.04574 | 598 ft | 4 kts | 270° |
| 2026-05-04 09:54 | 32.90082 | -97.04618 | 598 ft | 6 kts | 270° |
| 2026-05-04 09:54 | 32.90082 | -97.04675 | 598 ft | 8 kts | 270° |
| 2026-05-04 09:54 | 32.90095 | -97.04742 | 598 ft | 9 kts | 312° |
| 2026-05-04 09:55 | 32.90159 | -97.04761 | 597 ft | 11 kts | 355° |
| 2026-05-04 09:55 | 32.90237 | -97.04765 | 597 ft | 12 kts | 359° |
| 2026-05-04 09:55 | 32.90321 | -97.04765 | 597 ft | 12 kts | 360° |
| 2026-05-04 09:55 | 32.90409 | -97.04765 | 597 ft | 13 kts | 1° |
| 2026-05-04 09:56 | 32.90501 | -97.04763 | 597 ft | 14 kts | 1° |
| 2026-05-04 09:56 | 32.90599 | -97.04761 | 597 ft | 15 kts | 1° |
| 2026-05-04 09:56 | 32.90704 | -97.04759 | 597 ft | 15 kts | 0° |
| 2026-05-04 09:56 | 32.90812 | -97.04759 | 598 ft | 16 kts | 360° |
| 2026-05-04 09:57 | 32.90913 | -97.04759 | 603 ft | 13 kts | 0° |
| 2026-05-04 09:57 | 32.90993 | -97.04768 | 613 ft | 11 kts | 340° |
| 2026-05-04 09:57 | 32.91066 | -97.04793 | 617 ft | 11 kts | 357° |
| 2026-05-04 09:57 | 32.91139 | -97.04794 | 611 ft | 10 kts | 0° |
| 2026-05-04 09:58 | 32.91208 | -97.04794 | 618 ft | 9 kts | 0° |
| 2026-05-04 09:58 | 32.91273 | -97.04794 | 617 ft | 9 kts | 0° |
| 2026-05-04 09:58 | 32.91342 | -97.04793 | 613 ft | 11 kts | 0° |
| 2026-05-04 10:00 | 32.91566 | -97.05323 | 613 ft | 14 kts | 270° |
| 2026-05-04 10:00 | 32.91566 | -97.05433 | 615 ft | 13 kts | 266° |
| 2026-05-04 10:02 | 32.86358 | -97.05445 | 2664 ft | 153 kts | 192° |
| 2026-05-04 10:04 | 32.77217 | -97.09965 | 5687 ft | 240 kts | 255° |
| 2026-05-04 10:04 | 32.76868 | -97.11928 | 6337 ft | 246 kts | 258° |
| 2026-05-04 10:04 | 32.76562 | -97.13945 | 6953 ft | 251 kts | 265° |
| 2026-05-04 10:04 | 32.76620 | -97.16059 | 7453 ft | 261 kts | 274° |
| 2026-05-04 10:05 | 32.76762 | -97.18232 | 8089 ft | 265 kts | 274° |
| 2026-05-04 10:05 | 32.76913 | -97.20425 | 8796 ft | 267 kts | 276° |
| 2026-05-04 10:05 | 32.77417 | -97.22553 | 9485 ft | 271 kts | 295° |
| 2026-05-04 10:05 | 32.78541 | -97.24355 | 10182 ft | 276 kts | 315° |
| 2026-05-04 10:06 | 32.80174 | -97.25591 | 10822 ft | 285 kts | 332° |
| 2026-05-04 10:06 | 32.82081 | -97.26516 | 11001 ft | 308 kts | 336° |
| 2026-05-04 10:06 | 32.84231 | -97.27194 | 11127 ft | 333 kts | 346° |
| 2026-05-04 10:08 | 32.99651 | -97.26286 | 13875 ft | 397 kts | 14° |
| 2026-05-04 10:08 | 33.02181 | -97.24866 | 14415 ft | 408 kts | 26° |
| 2026-05-04 10:08 | 33.04475 | -97.22814 | 14949 ft | 416 kts | 35° |
| 2026-05-04 10:08 | 33.06702 | -97.20586 | 15495 ft | 419 kts | 35° |
| 2026-05-04 10:09 | 33.08949 | -97.18341 | 16039 ft | 423 kts | 35° |
| 2026-05-04 10:09 | 33.11218 | -97.16085 | 16577 ft | 426 kts | 35° |
| 2026-05-04 10:09 | 33.13506 | -97.13818 | 17110 ft | 430 kts | 35° |
| 2026-05-04 10:09 | 33.15817 | -97.11526 | 17648 ft | 434 kts | 35° |
| 2026-05-04 10:10 | 33.18146 | -97.09215 | 18171 ft | 437 kts | 35° |
| 2026-05-04 10:10 | 33.20495 | -97.06880 | 18624 ft | 441 kts | 35° |
| 2026-05-04 10:10 | 33.22857 | -97.04527 | 19062 ft | 443 kts | 35° |
| 2026-05-04 10:10 | 33.25228 | -97.02162 | 19512 ft | 445 kts | 35° |
| 2026-05-04 10:11 | 33.27612 | -96.99786 | 19953 ft | 448 kts | 34° |
| 2026-05-04 10:11 | 33.30012 | -96.97394 | 20397 ft | 450 kts | 34° |
| 2026-05-04 10:11 | 33.32395 | -96.95021 | 20815 ft | 452 kts | 34° |
| 2026-05-04 10:11 | 33.34846 | -96.92575 | 21254 ft | 454 kts | 34° |
| 2026-05-04 10:12 | 33.37245 | -96.90172 | 21661 ft | 457 kts | 34° |
| 2026-05-04 10:12 | 33.39683 | -96.87724 | 22075 ft | 459 kts | 34° |
| 2026-05-04 10:12 | 33.42140 | -96.85260 | 22478 ft | 461 kts | 34° |
| 2026-05-04 10:12 | 33.44642 | -96.82842 | 22861 ft | 461 kts | 30° |
| 2026-05-04 10:13 | 33.47360 | -96.80834 | 23193 ft | 458 kts | 22° |
| 2026-05-04 10:13 | 33.50179 | -96.79040 | 23585 ft | 460 kts | 22° |
| 2026-05-04 10:13 | 33.53015 | -96.77234 | 23881 ft | 463 kts | 22° |
| 2026-05-04 10:13 | 33.55873 | -96.75412 | 24199 ft | 466 kts | 22° |
| 2026-05-04 10:14 | 33.58740 | -96.73576 | 24530 ft | 468 kts | 22° |
| 2026-05-04 10:14 | 33.61611 | -96.71729 | 24849 ft | 470 kts | 22° |
| 2026-05-04 10:16 | 33.82069 | -96.58542 | 27059 ft | 482 kts | 21° |
| 2026-05-04 10:16 | 33.85031 | -96.56626 | 27362 ft | 484 kts | 21° |
| 2026-05-04 10:16 | 33.87998 | -96.54705 | 27748 ft | 483 kts | 20° |
| 2026-05-04 10:16 | 33.90949 | -96.52792 | 28181 ft | 482 kts | 20° |
| 2026-05-04 10:17 | 33.93902 | -96.50876 | 28615 ft | 480 kts | 20° |
| 2026-05-04 10:17 | 33.96800 | -96.48998 | 29026 ft | 479 kts | 20° |
| 2026-05-04 10:19 | 34.16647 | -96.34480 | 31629 ft | 478 kts | 25° |
| 2026-05-04 10:19 | 34.19400 | -96.32233 | 31921 ft | 478 kts | 25° |
| 2026-05-04 10:19 | 34.22152 | -96.29987 | 32220 ft | 478 kts | 25° |
| 2026-05-04 10:19 | 34.24904 | -96.27738 | 32506 ft | 478 kts | 25° |
| 2026-05-04 10:20 | 34.27655 | -96.25490 | 32779 ft | 478 kts | 25° |
| 2026-05-04 10:20 | 34.30409 | -96.23237 | 33071 ft | 478 kts | 25° |
| 2026-05-04 10:20 | 34.33161 | -96.20984 | 33418 ft | 477 kts | 24° |
| 2026-05-04 10:20 | 34.35907 | -96.18736 | 33761 ft | 475 kts | 24° |
| 2026-05-04 10:21 | 34.38641 | -96.16494 | 34058 ft | 475 kts | 23° |
| 2026-05-04 10:21 | 34.41373 | -96.14250 | 34312 ft | 474 kts | 23° |
| 2026-05-04 10:21 | 34.44099 | -96.12011 | 34575 ft | 473 kts | 23° |
| 2026-05-04 10:21 | 34.46817 | -96.09775 | 34835 ft | 472 kts | 23° |
| 2026-05-04 10:22 | 34.52249 | -96.05299 | 34951 ft | 472 kts | 23° |
| 2026-05-04 10:22 | 34.54964 | -96.03062 | 34949 ft | 471 kts | 23° |
| 2026-05-04 10:23 | 34.60354 | -95.98620 | 34963 ft | 471 kts | 23° |
| 2026-05-04 10:25 | 34.82027 | -95.80666 | 34966 ft | 471 kts | 23° |
| 2026-05-04 10:25 | 34.87415 | -95.76085 | 34997 ft | 475 kts | 26° |
| 2026-05-04 10:26 | 34.92675 | -95.71174 | 34989 ft | 478 kts | 28° |
| 2026-05-04 10:26 | 34.97878 | -95.66127 | 34972 ft | 478 kts | 28° |
| 2026-05-04 10:27 | 35.03067 | -95.61159 | 34940 ft | 477 kts | 27° |
| 2026-05-04 10:27 | 35.08318 | -95.56227 | 34937 ft | 476 kts | 27° |
| 2026-05-04 10:28 | 35.13574 | -95.51293 | 34964 ft | 477 kts | 28° |
| 2026-05-04 10:28 | 35.18806 | -95.46368 | 34931 ft | 475 kts | 28° |
| 2026-05-04 10:29 | 35.24037 | -95.41397 | 34930 ft | 476 kts | 29° |
| 2026-05-04 10:29 | 35.29265 | -95.36417 | 34931 ft | 476 kts | 29° |
| 2026-05-04 10:30 | 35.34499 | -95.31430 | 34944 ft | 476 kts | 29° |
| 2026-05-04 10:30 | 35.38847 | -95.27297 | 34979 ft | 476 kts | 29° |
| 2026-05-04 10:31 | 35.44080 | -95.22308 | 34959 ft | 477 kts | 30° |
| 2026-05-04 10:32 | 35.62382 | -95.04766 | 34951 ft | 477 kts | 30° |
| 2026-05-04 10:33 | 35.67604 | -94.99736 | 34972 ft | 477 kts | 30° |
| 2026-05-04 10:33 | 35.72822 | -94.94715 | 34984 ft | 476 kts | 31° |
| 2026-05-04 10:34 | 35.78039 | -94.89688 | 34968 ft | 476 kts | 31° |
| 2026-05-04 10:34 | 35.83217 | -94.84684 | 34957 ft | 476 kts | 31° |
| 2026-05-04 10:35 | 35.88423 | -94.79636 | 34952 ft | 476 kts | 31° |
| 2026-05-04 10:35 | 35.93631 | -94.74584 | 34951 ft | 476 kts | 31° |
| 2026-05-04 10:36 | 35.98837 | -94.69531 | 34946 ft | 476 kts | 31° |
| 2026-05-04 10:36 | 36.04040 | -94.64470 | 34958 ft | 476 kts | 31° |
| 2026-05-04 10:37 | 36.09242 | -94.59398 | 34963 ft | 476 kts | 31° |
| 2026-05-04 10:37 | 36.14438 | -94.54326 | 34973 ft | 476 kts | 31° |
| 2026-05-04 10:39 | 36.32606 | -94.36510 | 34969 ft | 475 kts | 32° |
| 2026-05-04 10:40 | 36.37751 | -94.31438 | 34974 ft | 475 kts | 32° |
| 2026-05-04 10:40 | 36.42924 | -94.26342 | 34992 ft | 475 kts | 32° |
| 2026-05-04 10:41 | 36.48104 | -94.21235 | 34974 ft | 475 kts | 32° |
| 2026-05-04 10:41 | 36.53273 | -94.16114 | 34971 ft | 475 kts | 32° |
| 2026-05-04 10:42 | 36.58442 | -94.10974 | 34919 ft | 475 kts | 32° |
| 2026-05-04 10:42 | 36.63612 | -94.05841 | 34915 ft | 475 kts | 32° |
| 2026-05-04 10:43 | 36.68752 | -94.00740 | 34930 ft | 475 kts | 32° |
| 2026-05-04 10:45 | 36.89401 | -93.80124 | 34921 ft | 475 kts | 32° |
| 2026-05-04 10:45 | 36.94557 | -93.74941 | 34914 ft | 475 kts | 32° |
| 2026-05-04 10:46 | 36.99704 | -93.69756 | 34903 ft | 475 kts | 32° |
| 2026-05-04 10:46 | 37.04847 | -93.64576 | 34901 ft | 474 kts | 32° |
| 2026-05-04 10:47 | 37.09958 | -93.59424 | 34904 ft | 474 kts | 32° |
| 2026-05-04 10:47 | 37.15089 | -93.54236 | 34909 ft | 474 kts | 33° |
| 2026-05-04 10:49 | 37.35608 | -93.33405 | 34872 ft | 473 kts | 32° |
| 2026-05-04 10:50 | 37.40798 | -93.28426 | 34864 ft | 471 kts | 30° |
| 2026-05-04 10:52 | 37.62041 | -93.09005 | 34852 ft | 472 kts | 30° |
| 2026-05-04 10:52 | 37.67324 | -93.04086 | 34868 ft | 472 kts | 30° |
| 2026-05-04 10:54 | 37.88473 | -92.84370 | 34839 ft | 473 kts | 30° |
| 2026-05-04 10:56 | 38.09616 | -92.64500 | 34836 ft | 473 kts | 30° |
| 2026-05-04 10:57 | 38.14911 | -92.59510 | 34833 ft | 474 kts | 30° |
| 2026-05-04 10:57 | 38.20207 | -92.54506 | 34856 ft | 474 kts | 30° |
| 2026-05-04 10:58 | 38.25499 | -92.49489 | 34844 ft | 474 kts | 30° |
| 2026-05-04 10:58 | 38.30760 | -92.44501 | 34838 ft | 474 kts | 30° |
| 2026-05-04 10:59 | 38.36050 | -92.39481 | 34837 ft | 474 kts | 30° |
| 2026-05-04 10:59 | 38.41337 | -92.34443 | 34835 ft | 474 kts | 30° |
| 2026-05-04 11:00 | 38.46632 | -92.29387 | 34836 ft | 474 kts | 30° |
| 2026-05-04 11:02 | 38.67757 | -92.09144 | 34859 ft | 475 kts | 29° |
| 2026-05-04 11:05 | 39.06132 | -91.68758 | 34850 ft | 489 kts | 44° |
| 2026-05-04 11:06 | 39.10467 | -91.61996 | 34846 ft | 489 kts | 44° |
| 2026-05-04 11:06 | 39.14807 | -91.55239 | 34858 ft | 489 kts | 44° |
| 2026-05-04 11:10 | 39.44881 | -91.07915 | 34938 ft | 488 kts | 43° |
| 2026-05-04 11:12 | 39.59841 | -90.84117 | 34815 ft | 487 kts | 44° |
| 2026-05-04 11:12 | 39.61975 | -90.80708 | 34810 ft | 487 kts | 44° |
| 2026-05-04 11:12 | 39.66243 | -90.73872 | 34815 ft | 487 kts | 44° |
| 2026-05-04 11:13 | 39.70499 | -90.67035 | 34807 ft | 487 kts | 44° |
| 2026-05-04 11:13 | 39.74755 | -90.60190 | 34805 ft | 487 kts | 44° |
| 2026-05-04 11:14 | 39.79008 | -90.53343 | 34814 ft | 487 kts | 44° |
| 2026-05-04 11:16 | 39.95957 | -90.26063 | 34820 ft | 480 kts | 39° |
| 2026-05-04 11:16 | 40.00890 | -90.20339 | 34814 ft | 474 kts | 33° |
| 2026-05-04 11:17 | 40.05896 | -90.14728 | 34832 ft | 473 kts | 35° |
| 2026-05-04 11:19 | 40.25674 | -89.92426 | 34835 ft | 469 kts | 36° |
| 2026-05-04 11:19 | 40.30605 | -89.86851 | 34828 ft | 468 kts | 37° |
| 2026-05-04 11:20 | 40.35514 | -89.81264 | 34823 ft | 467 kts | 36° |
| 2026-05-04 11:20 | 40.40416 | -89.75671 | 34820 ft | 466 kts | 36° |
| 2026-05-04 11:22 | 40.59118 | -89.54280 | 34583 ft | 465 kts | 37° |
| 2026-05-04 11:23 | 40.61551 | -89.51484 | 34342 ft | 464 kts | 37° |
| 2026-05-04 11:23 | 40.63982 | -89.48685 | 34097 ft | 464 kts | 37° |
| 2026-05-04 11:24 | 40.78842 | -89.31442 | 28756 ft | 480 kts | 39° |
| 2026-05-04 11:25 | 40.81311 | -89.28481 | 27797 ft | 481 kts | 39° |
| 2026-05-04 11:25 | 40.83794 | -89.25496 | 26698 ft | 486 kts | 39° |
| 2026-05-04 11:25 | 40.86306 | -89.22471 | 25552 ft | 491 kts | 39° |
| 2026-05-04 11:26 | 40.91383 | -89.16370 | 23818 ft | 490 kts | 39° |
| 2026-05-04 11:27 | 41.08349 | -88.95988 | 18705 ft | 453 kts | 39° |
| 2026-05-04 11:28 | 41.10656 | -88.93198 | 18266 ft | 442 kts | 38° |
| 2026-05-04 11:28 | 41.12916 | -88.90468 | 17598 ft | 438 kts | 38° |
| 2026-05-04 11:28 | 41.15158 | -88.87764 | 16968 ft | 433 kts | 38° |
| 2026-05-04 11:28 | 41.17367 | -88.85087 | 16388 ft | 428 kts | 38° |
| 2026-05-04 11:29 | 41.19552 | -88.82432 | 15792 ft | 424 kts | 38° |
| 2026-05-04 11:29 | 41.21723 | -88.79797 | 15244 ft | 421 kts | 38° |
| 2026-05-04 11:29 | 41.23876 | -88.77184 | 14680 ft | 417 kts | 38° |
| 2026-05-04 11:29 | 41.26009 | -88.74597 | 14126 ft | 413 kts | 38° |
| 2026-05-04 11:31 | 41.40423 | -88.57121 | 10527 ft | 400 kts | 38° |
| 2026-05-04 11:33 | 41.54977 | -88.39871 | 10113 ft | 400 kts | 38° |
| 2026-05-04 11:33 | 41.57052 | -88.37391 | 10130 ft | 400 kts | 39° |
| 2026-05-04 11:33 | 41.59120 | -88.34914 | 10132 ft | 400 kts | 39° |
| 2026-05-04 11:34 | 41.61189 | -88.32434 | 10132 ft | 399 kts | 39° |
| 2026-05-04 11:34 | 41.63247 | -88.29968 | 10125 ft | 390 kts | 39° |
| 2026-05-04 11:34 | 41.65236 | -88.27590 | 10129 ft | 381 kts | 39° |
| 2026-05-04 11:34 | 41.67213 | -88.25236 | 10118 ft | 380 kts | 39° |
| 2026-05-04 11:35 | 41.69194 | -88.22882 | 10127 ft | 378 kts | 39° |
| 2026-05-04 11:35 | 41.71106 | -88.20610 | 10120 ft | 359 kts | 39° |
| 2026-05-04 11:35 | 41.72924 | -88.18441 | 10097 ft | 340 kts | 38° |
| 2026-05-04 11:35 | 41.74645 | -88.16382 | 10094 ft | 324 kts | 38° |
| 2026-05-04 11:36 | 41.76281 | -88.14422 | 10083 ft | 308 kts | 38° |
| 2026-05-04 11:36 | 41.77858 | -88.12539 | 10082 ft | 301 kts | 38° |
| 2026-05-04 11:36 | 41.79421 | -88.10674 | 10100 ft | 301 kts | 38° |
| 2026-05-04 11:36 | 41.80976 | -88.08802 | 10099 ft | 301 kts | 39° |
| 2026-05-04 11:37 | 41.82459 | -88.06908 | 10076 ft | 293 kts | 41° |
| 2026-05-04 11:37 | 41.83897 | -88.05000 | 10076 ft | 290 kts | 42° |
| 2026-05-04 11:37 | 41.85266 | -88.03028 | 10112 ft | 290 kts | 49° |
| 2026-05-04 11:37 | 41.86418 | -88.00802 | 10114 ft | 292 kts | 57° |
| 2026-05-04 11:38 | 41.87334 | -87.98372 | 10114 ft | 291 kts | 66° |
| 2026-05-04 11:38 | 41.87980 | -87.95818 | 10111 ft | 289 kts | 75° |
| 2026-05-04 11:38 | 41.88353 | -87.93175 | 10052 ft | 288 kts | 84° |
| 2026-05-04 11:38 | 41.88446 | -87.90498 | 9985 ft | 287 kts | 91° |
| 2026-05-04 11:39 | 41.88439 | -87.87822 | 9925 ft | 287 kts | 91° |
| 2026-05-04 11:39 | 41.88432 | -87.85147 | 9864 ft | 286 kts | 91° |
| 2026-05-04 11:40 | 41.88421 | -87.69214 | 9506 ft | 283 kts | 91° |
| 2026-05-04 11:41 | 41.88416 | -87.66599 | 9435 ft | 279 kts | 91° |
| 2026-05-04 11:41 | 41.88411 | -87.64010 | 9367 ft | 277 kts | 91° |
| 2026-05-04 11:41 | 41.88406 | -87.61422 | 9291 ft | 277 kts | 91° |
| 2026-05-04 11:41 | 41.88397 | -87.58838 | 9236 ft | 277 kts | 91° |
| 2026-05-04 11:42 | 41.88387 | -87.56255 | 9173 ft | 277 kts | 91° |
| 2026-05-04 11:42 | 41.88377 | -87.53677 | 9109 ft | 276 kts | 91° |
| 2026-05-04 11:42 | 41.88371 | -87.51431 | 9053 ft | 276 kts | 91° |
| 2026-05-04 11:42 | 41.88366 | -87.48854 | 8988 ft | 276 kts | 91° |
| 2026-05-04 11:43 | 41.88386 | -87.46284 | 8955 ft | 275 kts | 90° |
| 2026-05-04 11:43 | 41.88602 | -87.43731 | 8922 ft | 278 kts | 73° |
| 2026-05-04 11:43 | 41.89519 | -87.41509 | 8706 ft | 270 kts | 45° |
| 2026-05-04 11:43 | 41.91009 | -87.40023 | 8652 ft | 266 kts | 20° |
| 2026-05-04 11:44 | 41.92765 | -87.39479 | 8589 ft | 256 kts | 353° |
| 2026-05-04 11:44 | 41.94449 | -87.40021 | 8533 ft | 246 kts | 327° |
| 2026-05-04 11:44 | 41.95738 | -87.41432 | 8474 ft | 236 kts | 303° |
| 2026-05-04 11:44 | 41.96441 | -87.43374 | 8424 ft | 230 kts | 281° |
| 2026-05-04 11:45 | 41.96564 | -87.45498 | 8070 ft | 228 kts | 268° |
| 2026-05-04 11:45 | 41.96555 | -87.47602 | 7621 ft | 228 kts | 268° |
| 2026-05-04 11:45 | 41.96552 | -87.49714 | 7156 ft | 222 kts | 268° |
| 2026-05-04 11:45 | 41.96556 | -87.51764 | 6701 ft | 216 kts | 268° |
| 2026-05-04 11:46 | 41.96560 | -87.53778 | 6136 ft | 214 kts | 268° |
| 2026-05-04 11:46 | 41.96564 | -87.55755 | 5590 ft | 209 kts | 268° |
| 2026-05-04 11:46 | 41.96567 | -87.57688 | 5241 ft | 206 kts | 268° |
| 2026-05-04 11:46 | 41.96570 | -87.59594 | 4953 ft | 201 kts | 268° |
| 2026-05-04 11:47 | 41.96573 | -87.61453 | 4682 ft | 197 kts | 268° |
| 2026-05-04 11:47 | 41.96575 | -87.63280 | 4423 ft | 194 kts | 268° |
| 2026-05-04 11:47 | 41.96577 | -87.65085 | 4174 ft | 193 kts | 268° |
| 2026-05-04 11:47 | 41.96579 | -87.66886 | 3901 ft | 193 kts | 268° |
| 2026-05-04 11:48 | 41.96580 | -87.68677 | 3637 ft | 188 kts | 268° |
| 2026-05-04 11:48 | 41.96582 | -87.70381 | 3393 ft | 180 kts | 268° |
| 2026-05-04 11:48 | 41.96582 | -87.72068 | 3170 ft | 180 kts | 267° |
| 2026-05-04 11:48 | 41.96582 | -87.73727 | 2932 ft | 173 kts | 266° |
| 2026-05-04 11:49 | 41.96582 | -87.75269 | 2729 ft | 156 kts | 266° |
| 2026-05-04 11:49 | 41.96584 | -87.76679 | 2529 ft | 146 kts | 266° |
| 2026-05-04 11:49 | 41.96583 | -87.78019 | 2326 ft | 141 kts | 266° |
| 2026-05-04 11:49 | 41.96583 | -87.79332 | 2134 ft | 140 kts | 266° |
| 2026-05-04 11:50 | 41.96582 | -87.80637 | 1948 ft | 140 kts | 267° |
| 2026-05-04 11:50 | 41.96582 | -87.81918 | 1766 ft | 138 kts | 266° |
| 2026-05-04 11:50 | 41.96581 | -87.83207 | 1582 ft | 138 kts | 266° |
| 2026-05-04 11:50 | 41.96587 | -87.84508 | 1396 ft | 140 kts | 268° |
| 2026-05-04 11:51 | 41.96593 | -87.85806 | 1167 ft | 138 kts | 265° |
| 2026-05-04 11:51 | 41.96587 | -87.87088 | 1029 ft | 137 kts | 266° |
| 2026-05-04 11:51 | 41.96585 | -87.88385 | 841 ft | 139 kts | 265° |
| 2026-05-04 11:51 | 41.96575 | -87.89678 | 684 ft | 137 kts | 265° |
| 2026-05-04 11:52 | 41.96570 | -87.90809 | 667 ft | 102 kts | 269° |
| 2026-05-04 11:52 | 41.96573 | -87.91531 | 670 ft | 52 kts | 270° |
| 2026-05-04 11:52 | 41.96574 | -87.91929 | 671 ft | 19 kts | 272° |
| 2026-05-04 11:52 | 41.96624 | -87.92077 | 672 ft | 18 kts | 341° |
| 2026-05-04 11:53 | 41.96736 | -87.92084 | 671 ft | 15 kts | 0° |
| 2026-05-04 11:53 | 41.96840 | -87.92083 | 672 ft | 15 kts | 0° |
| 2026-05-04 11:53 | 41.96947 | -87.92083 | 673 ft | 16 kts | 360° |
| 2026-05-04 11:53 | 41.97037 | -87.92016 | 671 ft | 17 kts | 77° |
| 2026-05-04 11:55 | 41.97041 | -87.90651 | 670 ft | 22 kts | 89° |
| 2026-05-04 11:55 | 41.97043 | -87.90444 | 670 ft | 20 kts | 91° |
| 2026-05-04 11:56 | 41.97041 | -87.90277 | 670 ft | 17 kts | 89° |
| 2026-05-04 11:56 | 41.97069 | -87.90141 | 669 ft | 13 kts | 19° |
| 2026-05-04 11:56 | 41.97162 | -87.90134 | 670 ft | 11 kts | 353° |
| 2026-05-04 11:56 | 41.97229 | -87.90154 | 670 ft | 7 kts | 17° |
| 2026-05-04 11:57 | 41.97248 | -87.90128 | 671 ft | 3 kts | 51° |
| 2026-05-04 11:57 | 41.97260 | -87.90108 | 671 ft | 3 kts | 53° |
| 2026-05-04 11:57 | 41.97266 | -87.90096 | 669 ft | 1 kts | 53° |
| 2026-05-04 11:57 | 41.97267 | -87.90094 | 670 ft | 0 kts | 53° |